^^
Your Local Weather - Clay, NY Station Historical Data
Daily Summary for July 4, 2017 Units:  English    Metric   Both
« Previous Day
Next Day »
Daily Weekly Monthly Yearly Custom
  High: Low: Average:
Temperature: 78.5 °F 54.5 °F 66.5 °F
Dew Point: 63.3 °F 46.2 °F 54.6 °F
Humidity: 94% 36% 69%
Wind Speed: 4.0mph 0.0mph 0.8mph
Wind Gust: 9.0mph - -
Wind- - West
Pressure: 30.13 in 30.01 in -
Precipitation: 0.00 in    
Historical Graphs
 
 
Tabular Data for July 4, 2017
Time Temperature Dew Point Pressure Wind Wind Speed Wind Gust Humidity Rainfall Rate (Hourly) solar
00:00 58.0 °F 55.1 °F 30.02 in Calm     90% 0.00 in 0 W/m2
00:06 57.8 °F 54.9 °F 30.02 in Calm     90% 0.00 in 0 W/m2
00:12 57.6 °F 54.7 °F 30.02 in Calm     90% 0.00 in 0 W/m2
00:18 57.5 °F 54.6 °F 30.02 in Calm     90% 0.00 in 0 W/m2
00:24 57.4 °F 54.5 °F 30.02 in Calm     90% 0.00 in 0 W/m2
00:30 57.3 °F 54.7 °F 30.02 in Calm     91% 0.00 in 0 W/m2
00:36 57.5 °F 54.9 °F 30.02 in Calm     91% 0.00 in 0 W/m2
00:42 57.3 °F 54.7 °F 30.02 in Calm     91% 0.00 in 0 W/m2
00:48 57.2 °F 54.6 °F 30.02 in Calm     91% 0.00 in 0 W/m2
00:54 57.2 °F 54.6 °F 30.02 in Calm     91% 0.00 in 0 W/m2
01:00 57.1 °F 54.5 °F 30.02 in Calm     91% 0.00 in 0 W/m2
01:06 57.0 °F 54.4 °F 30.02 in Calm     91% 0.00 in 0 W/m2
01:12 57.0 °F 54.4 °F 30.02 in Calm     91% 0.00 in 0 W/m2
01:18 57.0 °F 54.4 °F 30.02 in Calm     91% 0.00 in 0 W/m2
01:24 57.0 °F 54.7 °F 30.02 in Calm     92% 0.00 in 0 W/m2
01:30 56.9 °F 54.6 °F 30.02 in Calm     92% 0.00 in 0 W/m2
01:36 56.8 °F 54.5 °F 30.02 in Calm     92% 0.00 in 0 W/m2
01:42 56.9 °F 54.6 °F 30.02 in Calm     92% 0.00 in 0 W/m2
01:48 57.0 °F 54.7 °F 30.01 in Calm     92% 0.00 in 0 W/m2
01:54 57.0 °F 54.7 °F 30.01 in Calm     92% 0.00 in 0 W/m2
02:00 56.9 °F 54.6 °F 30.01 in Calm     92% 0.00 in 0 W/m2
02:06 56.7 °F 54.4 °F 30.01 in Calm     92% 0.00 in 0 W/m2
02:12 56.6 °F 54.3 °F 30.02 in Calm     92% 0.00 in 0 W/m2
02:18 56.6 °F 54.3 °F 30.01 in Calm     92% 0.00 in 0 W/m2
02:24 56.6 °F 54.3 °F 30.01 in Calm     92% 0.00 in 0 W/m2
02:30 56.5 °F 54.2 °F 30.01 in Calm     92% 0.00 in 0 W/m2
02:36 56.4 °F 54.1 °F 30.01 in Calm     92% 0.00 in 0 W/m2
02:42 56.2 °F 53.9 °F 30.01 in Calm     92% 0.00 in 0 W/m2
02:48 56.2 °F 54.2 °F 30.01 in Calm     93% 0.00 in 0 W/m2
02:56 56.2 °F 54.2 °F 30.01 in Calm     93% 0.00 in 0 W/m2
03:02 56.0 °F 53.7 °F 30.01 in Calm     92% 0.00 in 0 W/m2
03:08 55.9 °F 53.6 °F 30.01 in Calm     92% 0.00 in 0 W/m2
03:14 55.9 °F 53.9 °F 30.01 in Calm     93% 0.00 in 0 W/m2
03:20 55.8 °F 53.8 °F 30.02 in Calm     93% 0.00 in 0 W/m2
03:26 55.8 °F 53.8 °F 30.01 in Calm     93% 0.00 in 0 W/m2
03:32 55.8 °F 53.8 °F 30.01 in Calm     93% 0.00 in 0 W/m2
03:38 55.8 °F 53.8 °F 30.02 in Calm     93% 0.00 in 0 W/m2
03:44 55.7 °F 53.7 °F 30.01 in Calm     93% 0.00 in 0 W/m2
03:50 55.8 °F 53.8 °F 30.02 in Calm     93% 0.00 in 0 W/m2
03:56 55.8 °F 53.8 °F 30.02 in Calm     93% 0.00 in 0 W/m2
04:02 55.7 °F 53.7 °F 30.02 in Calm     93% 0.00 in 0 W/m2
04:08 55.6 °F 53.6 °F 30.02 in Calm     93% 0.00 in 0 W/m2
04:14 55.5 °F 53.5 °F 30.02 in Calm     93% 0.00 in 0 W/m2
04:20 55.4 °F 53.4 °F 30.02 in Calm     93% 0.00 in 0 W/m2
04:26 55.3 °F 53.3 °F 30.02 in Calm     93% 0.00 in 0 W/m2
04:32 55.2 °F 53.2 °F 30.02 in Calm     93% 0.00 in 0 W/m2
04:38 55.1 °F 53.1 °F 30.02 in Calm     93% 0.00 in 0 W/m2
04:44 55.0 °F 53.0 °F 30.02 in Calm     93% 0.00 in 0 W/m2
04:50 54.8 °F 52.8 °F 30.03 in Calm     93% 0.00 in 0 W/m2
04:56 54.8 °F 52.8 °F 30.03 in Calm     93% 0.00 in 0 W/m2
05:02 54.9 °F 52.9 °F 30.03 in Calm     93% 0.00 in 0 W/m2
05:08 55.0 °F 53.0 °F 30.03 in Calm     93% 0.00 in 0 W/m2
05:14 54.8 °F 52.8 °F 30.03 in Calm     93% 0.00 in 0 W/m2
05:20 54.7 °F 52.7 °F 30.03 in Calm     93% 0.00 in 0 W/m2
05:26 54.7 °F 52.7 °F 30.03 in Calm     93% 0.00 in 0 W/m2
05:32 54.8 °F 52.8 °F 30.03 in Calm     93% 0.00 in 0 W/m2
05:38 54.7 °F 52.7 °F 30.03 in Calm     93% 0.00 in 5 W/m2
05:44 54.5 °F 52.5 °F 30.04 in Calm     93% 0.00 in 7 W/m2
05:50 54.5 °F 52.5 °F 30.04 in Calm     93% 0.00 in 9 W/m2
05:56 55.0 °F 53.0 °F 30.04 in Calm     93% 0.00 in 12 W/m2
06:02 55.0 °F 53.0 °F 30.04 in Calm     93% 0.00 in 16 W/m2
06:08 55.0 °F 53.0 °F 30.05 in Calm     93% 0.00 in 18 W/m2
06:14 55.0 °F 53.0 °F 30.05 in Calm     93% 0.00 in 21 W/m2
06:20 55.2 °F 53.5 °F 30.05 in Calm     94% 0.00 in 25 W/m2
06:26 55.3 °F 53.6 °F 30.05 in Calm     94% 0.00 in 74 W/m2
06:32 56.1 °F 54.4 °F 30.05 in Calm     94% 0.00 in 113 W/m2
06:38 56.8 °F 55.1 °F 30.05 in Calm     94% 0.00 in 128 W/m2
06:44 57.1 °F 55.4 °F 30.06 in Calm     94% 0.00 in 141 W/m2
06:50 58.1 °F 56.4 °F 30.06 in Calm     94% 0.00 in 155 W/m2
06:56 59.1 °F 57.4 °F 30.06 in Calm     94% 0.00 in 169 W/m2
07:02 59.9 °F 58.2 °F 30.06 in Calm     94% 0.00 in 185 W/m2
07:08 59.8 °F 58.1 °F 30.06 in Calm   2.0 mph 94% 0.00 in 199 W/m2
07:14 60.0 °F 58.3 °F 30.06 in Calm   1.0 mph 94% 0.00 in 216 W/m2
07:20 60.5 °F 58.5 °F 30.07 in Calm   1.0 mph 93% 0.00 in 234 W/m2
07:26 61.0 °F 58.7 °F 30.07 in Calm   2.0 mph 92% 0.00 in 250 W/m2
07:32 61.6 °F 58.6 °F 30.07 in Calm     90% 0.00 in 269 W/m2
07:38 62.3 °F 59.0 °F 30.07 in Calm   2.0 mph 89% 0.00 in 294 W/m2
07:44 63.0 °F 59.1 °F 30.07 in Calm     87% 0.00 in 311 W/m2
07:50 63.6 °F 59.3 °F 30.07 in Calm     86% 0.00 in 327 W/m2
07:56 64.6 °F 60.0 °F 30.07 in Calm     85% 0.00 in 345 W/m2
08:03 65.3 °F 60.0 °F 30.08 in Calm     83% 0.00 in 364 W/m2
08:08 65.6 °F 60.3 °F 30.08 in Calm     83% 0.00 in 380 W/m2
08:14 65.7 °F 60.1 °F 30.08 in Calm   3.0 mph 82% 0.00 in 397 W/m2
08:20 66.2 °F 60.5 °F 30.08 in Calm     82% 0.00 in 415 W/m2
08:26 66.7 °F 60.3 °F 30.08 in Calm     80% 0.00 in 427 W/m2
08:32 67.3 °F 61.3 °F 30.08 in Calm     81% 0.00 in 448 W/m2
08:38 67.8 °F 60.7 °F 30.08 in Calm   1.0 mph 78% 0.00 in 464 W/m2
08:44 67.6 °F 60.1 °F 30.09 in Calm   2.0 mph 77% 0.00 in 482 W/m2
08:50 67.6 °F 60.5 °F 30.09 in Calm     78% 0.00 in 496 W/m2
08:56 68.1 °F 61.3 °F 30.09 in Calm     79% 0.00 in 517 W/m2
09:02 68.6 °F 61.5 °F 30.09 in Calm     78% 0.00 in 536 W/m2
09:08 69.4 °F 61.9 °F 30.09 in NNW 1.0 mph 3.0 mph 77% 0.00 in 554 W/m2
09:14 70.1 °F 62.6 °F 30.09 in NNW 1.0 mph 1.0 mph 77% 0.00 in 571 W/m2
09:20 70.5 °F 61.8 °F 30.09 in NNW 1.0 mph 1.0 mph 74% 0.00 in 589 W/m2
09:26 70.3 °F 62.0 °F 30.09 in NNW 1.0 mph 1.0 mph 75% 0.00 in 610 W/m2
09:32 70.3 °F 62.0 °F 30.09 in Calm     75% 0.00 in 624 W/m2
09:38 70.3 °F 61.6 °F 30.09 in Calm     74% 0.00 in 643 W/m2
09:44 70.7 °F 61.2 °F 30.09 in Calm   1.0 mph 72% 0.00 in 659 W/m2
09:50 71.1 °F 61.6 °F 30.08 in Calm   1.0 mph 72% 0.00 in 675 W/m2
09:56 71.3 °F 61.8 °F 30.08 in Calm   2.0 mph 72% 0.00 in 689 W/m2
10:02 70.9 °F 61.4 °F 30.08 in SSW 1.0 mph 3.0 mph 72% 0.00 in 708 W/m2
10:08 71.0 °F 61.5 °F 30.08 in South 2.0 mph 3.0 mph 72% 0.00 in 722 W/m2
10:14 71.6 °F 63.3 °F 30.08 in SW 1.0 mph 2.0 mph 75% 0.00 in 740 W/m2
10:20 72.1 °F 61.8 °F 30.08 in WNW 1.0 mph 1.0 mph 70% 0.00 in 758 W/m2
10:26 72.7 °F 61.9 °F 30.08 in WNW 1.0 mph 1.0 mph 69% 0.00 in 766 W/m2
10:32 73.4 °F 62.6 °F 30.08 in Calm   3.0 mph 69% 0.00 in 782 W/m2
10:38 73.2 °F 60.7 °F 30.08 in North 1.0 mph 3.0 mph 65% 0.00 in 812 W/m2
10:44 73.7 °F 61.6 °F 30.08 in NNW 1.0 mph 3.0 mph 66% 0.00 in 805 W/m2
10:50 74.2 °F 61.7 °F 30.08 in NNW 1.0 mph 1.0 mph 65% 0.00 in 870 W/m2
10:56 74.1 °F 60.2 °F 30.08 in NNW 1.0 mph 2.0 mph 62% 0.00 in 782 W/m2
11:02 73.6 °F 60.2 °F 30.08 in NNW 1.0 mph 2.0 mph 63% 0.00 in 88 W/m2
11:06 73.2 °F 60.7 °F 30.08 in NNW 1.0 mph 2.0 mph 65% 0.00 in 113 W/m2
11:12 73.9 °F 58.7 °F 30.08 in NNW 1.0 mph 3.0 mph 59% 0.00 in 879 W/m2
11:18 74.8 °F 60.0 °F 30.08 in NNW 2.0 mph 3.0 mph 60% 0.00 in 888 W/m2
11:24 75.8 °F 58.5 °F 30.08 in NW 1.0 mph 2.0 mph 55% 0.00 in 1000 W/m2
11:30 74.9 °F 59.1 °F 30.08 in NW 1.0 mph 2.0 mph 58% 0.00 in 956 W/m2
11:36 75.0 °F 58.2 °F 30.08 in NW 2.0 mph 2.0 mph 56% 0.00 in 951 W/m2
11:42 75.1 °F 59.8 °F 30.08 in NNE 1.0 mph 2.0 mph 59% 0.00 in 932 W/m2
11:48 75.8 °F 59.5 °F 30.08 in NNW 1.0 mph 3.0 mph 57% 0.00 in 939 W/m2
11:54 76.2 °F 60.8 °F 30.07 in WNW 1.0 mph 3.0 mph 59% 0.00 in 960 W/m2
12:00 76.6 °F 57.1 °F 30.07 in Calm     51% 0.00 in 954 W/m2
12:06 75.8 °F 58.0 °F 30.07 in SSW 1.0 mph 3.0 mph 54% 0.00 in 958 W/m2
12:12 76.3 °F 60.9 °F 30.07 in SSW 1.0 mph 3.0 mph 59% 0.00 in 1002 W/m2
12:18 76.1 °F 57.7 °F 30.07 in NW 1.0 mph 3.0 mph 53% 0.00 in 1065 W/m2
12:24 74.9 °F 57.1 °F 30.07 in Calm   1.0 mph 54% 0.00 in 278 W/m2
12:30 76.4 °F 60.0 °F 30.07 in Calm     57% 0.00 in 1102 W/m2
12:36 77.1 °F 54.7 °F 30.07 in NNE 1.0 mph 1.0 mph 46% 0.00 in 225 W/m2
12:42 76.0 °F 55.5 °F 30.07 in NNE 1.0 mph 2.0 mph 49% 0.00 in 248 W/m2
12:48 75.1 °F 55.2 °F 30.07 in NNE 1.0 mph 3.0 mph 50% 0.00 in 248 W/m2
12:54 74.8 °F 53.8 °F 30.07 in NNW 2.0 mph 4.0 mph 48% 0.00 in 322 W/m2
13:00 75.9 °F 56.5 °F 30.07 in North 2.0 mph 3.0 mph 51% 0.00 in 1172 W/m2
13:06 77.5 °F 57.9 °F 30.06 in North 3.0 mph 5.0 mph 51% 0.00 in 1158 W/m2
13:12 76.3 °F 57.4 °F 30.06 in North 3.0 mph 3.0 mph 52% 0.00 in 255 W/m2
13:18 75.3 °F 56.5 °F 30.06 in North 2.0 mph 4.0 mph 52% 0.00 in 290 W/m2
13:24 75.1 °F 57.8 °F 30.06 in North 2.0 mph 4.0 mph 55% 0.00 in 1034 W/m2
13:30 75.1 °F 56.8 °F 30.06 in NW 1.0 mph 3.0 mph 53% 0.00 in 292 W/m2
13:36 75.1 °F 56.8 °F 30.06 in NW 1.0 mph 3.0 mph 53% 0.00 in 374 W/m2
13:42 75.9 °F 57.0 °F 30.06 in Calm     52% 0.00 in 496 W/m2
13:48 77.7 °F 57.6 °F 30.06 in Calm   2.0 mph 50% 0.00 in 1255 W/m2
13:54 77.5 °F 56.3 °F 30.06 in WSW 1.0 mph 5.0 mph 48% 0.00 in 568 W/m2
14:00 77.5 °F 54.5 °F 30.06 in WSW 1.0 mph 3.0 mph 45% 0.00 in 1078 W/m2
14:06 78.1 °F 55.6 °F 30.06 in NW 1.0 mph 7.0 mph 46% 0.00 in 963 W/m2
14:12 77.8 °F 56.0 °F 30.05 in North 2.0 mph 4.0 mph 47% 0.00 in 1102 W/m2
14:18 78.0 °F 55.5 °F 30.05 in NNW 3.0 mph 4.0 mph 46% 0.00 in 1130 W/m2
14:24 78.3 °F 57.6 °F 30.05 in NW 2.0 mph 4.0 mph 49% 0.00 in 1137 W/m2
14:30 76.9 °F 56.8 °F 30.05 in WNW 2.0 mph 3.0 mph 50% 0.00 in 234 W/m2
14:36 75.6 °F 56.7 °F 30.05 in NW 3.0 mph 4.0 mph 52% 0.00 in 248 W/m2
14:42 75.5 °F 56.6 °F 30.05 in NNE 2.0 mph 3.0 mph 52% 0.00 in 694 W/m2
14:48 76.2 °F 53.9 °F 30.05 in NW 2.0 mph 3.0 mph 46% 0.00 in 431 W/m2
14:54 76.5 °F 57.0 °F 30.05 in NNE 3.0 mph 9.0 mph 51% 0.00 in 1129 W/m2
15:00 77.2 °F 54.2 °F 30.05 in NNW 4.0 mph 4.0 mph 45% 0.00 in 563 W/m2
15:06 77.5 °F 54.5 °F 30.05 in NE 3.0 mph 6.0 mph 45% 0.00 in 995 W/m2
15:12 77.8 °F 54.8 °F 30.05 in North 4.0 mph 4.0 mph 45% 0.00 in 849 W/m2
15:16 78.0 °F 54.9 °F 30.05 in North 3.0 mph 4.0 mph 45% 0.00 in 976 W/m2
15:22 78.2 °F 53.9 °F 30.05 in WNW 2.0 mph 3.0 mph 43% 0.00 in 932 W/m2
15:28 78.5 °F 53.5 °F 30.05 in NW 2.0 mph 3.0 mph 42% 0.00 in 921 W/m2
15:34 77.3 °F 53.7 °F 30.05 in North 2.0 mph 4.0 mph 44% 0.00 in 185 W/m2
15:40 76.2 °F 54.5 °F 30.06 in North 4.0 mph 6.0 mph 47% 0.00 in 840 W/m2
15:46 77.6 °F 52.7 °F 30.05 in North 3.0 mph 6.0 mph 42% 0.00 in 795 W/m2
15:52 77.6 °F 53.3 °F 30.06 in NNW 2.0 mph 5.0 mph 43% 0.00 in 773 W/m2
15:58 77.7 °F 54.0 °F 30.06 in NNE 3.0 mph 5.0 mph 44% 0.00 in 761 W/m2
16:04 77.7 °F 50.1 °F 30.06 in North 3.0 mph 8.0 mph 38% 0.00 in 749 W/m2
16:10 77.6 °F 50.7 °F 30.06 in NW 3.0 mph 6.0 mph 39% 0.00 in 735 W/m2
16:16 77.5 °F 48.4 °F 30.06 in NW 4.0 mph 6.0 mph 36% 0.00 in 642 W/m2
16:22 77.3 °F 48.3 °F 30.06 in NW 4.0 mph 5.0 mph 36% 0.00 in 698 W/m2
16:28 76.9 °F 50.1 °F 30.06 in NNW 4.0 mph 6.0 mph 39% 0.00 in 332 W/m2
16:34 77.0 °F 50.8 °F 30.06 in NNW 3.0 mph 5.0 mph 40% 0.00 in 285 W/m2
16:40 77.0 °F 50.1 °F 30.06 in North 3.0 mph 4.0 mph 39% 0.00 in 95 W/m2
16:46 76.6 °F 49.8 °F 30.06 in NW 3.0 mph 7.0 mph 39% 0.00 in 54 W/m2
16:52 76.6 °F 48.4 °F 30.05 in North 4.0 mph 5.0 mph 37% 0.00 in 53 W/m2
16:58 76.6 °F 49.1 °F 30.06 in NNW 4.0 mph 7.0 mph 38% 0.00 in 69 W/m2
17:04 76.3 °F 50.9 °F 30.05 in North 3.0 mph 5.0 mph 41% 0.00 in 53 W/m2
17:10 76.1 °F 50.7 °F 30.05 in NNW 3.0 mph 3.0 mph 41% 0.00 in 49 W/m2
17:16 76.2 °F 50.1 °F 30.05 in North 3.0 mph 4.0 mph 40% 0.00 in 47 W/m2
17:22 76.0 °F 49.2 °F 30.05 in North 3.0 mph 4.0 mph 39% 0.00 in 46 W/m2
17:28 76.0 °F 49.2 °F 30.05 in North 3.0 mph 4.0 mph 39% 0.00 in 44 W/m2
17:34 76.0 °F 47.1 °F 30.05 in NW 3.0 mph 3.0 mph 36% 0.00 in 46 W/m2
17:40 75.9 °F 48.5 °F 30.05 in North 3.0 mph 3.0 mph 38% 0.00 in 42 W/m2
17:46 75.8 °F 48.4 °F 30.05 in NNW 3.0 mph 5.0 mph 38% 0.00 in 42 W/m2
17:52 75.6 °F 47.5 °F 30.05 in NNW 4.0 mph 4.0 mph 37% 0.00 in 40 W/m2
17:58 75.5 °F 48.8 °F 30.05 in North 3.0 mph 5.0 mph 39% 0.00 in 40 W/m2
18:04 75.5 °F 47.4 °F 30.05 in NNW 3.0 mph 4.0 mph 37% 0.00 in 39 W/m2
18:10 75.3 °F 47.2 °F 30.05 in NNW 3.0 mph 4.0 mph 37% 0.00 in 39 W/m2
18:16 75.3 °F 47.2 °F 30.05 in NNE 3.0 mph 5.0 mph 37% 0.00 in 37 W/m2
18:22 75.2 °F 47.1 °F 30.05 in North 3.0 mph 3.0 mph 37% 0.00 in 37 W/m2
18:28 75.0 °F 46.2 °F 30.05 in NNE 3.0 mph 5.0 mph 36% 0.00 in 35 W/m2
18:34 75.0 °F 47.0 °F 30.05 in NW 3.0 mph 5.0 mph 37% 0.00 in 35 W/m2
18:40 74.8 °F 47.5 °F 30.05 in North 3.0 mph 3.0 mph 38% 0.00 in 33 W/m2
18:46 74.6 °F 47.3 °F 30.05 in NW 2.0 mph 3.0 mph 38% 0.00 in 35 W/m2
18:52 74.4 °F 48.5 °F 30.05 in NNE 2.0 mph 3.0 mph 40% 0.00 in 32 W/m2
18:58 74.3 °F 47.0 °F 30.06 in NW 1.0 mph 3.0 mph 38% 0.00 in 32 W/m2
19:04 74.2 °F 49.6 °F 30.06 in NNW 1.0 mph 3.0 mph 42% 0.00 in 33 W/m2
19:10 73.9 °F 49.4 °F 30.06 in NNW 1.0 mph 1.0 mph 42% 0.00 in 30 W/m2
19:16 73.9 °F 48.7 °F 30.06 in NNW 1.0 mph 3.0 mph 41% 0.00 in 28 W/m2
19:22 73.8 °F 49.9 °F 30.06 in NNW 1.0 mph 1.0 mph 43% 0.00 in 30 W/m2
19:28 73.5 °F 49.0 °F 30.06 in Calm   2.0 mph 42% 0.00 in 26 W/m2
19:34 73.3 °F 50.7 °F 30.07 in Calm     45% 0.00 in 26 W/m2
19:40 72.6 °F 52.3 °F 30.07 in Calm     49% 0.00 in 25 W/m2
19:42 72.4 °F 53.8 °F 30.07 in Calm     52% 0.00 in 25 W/m2
19:48 72.0 °F 53.9 °F 30.07 in Calm     53% 0.00 in 30 W/m2
19:54 71.5 °F 53.5 °F 30.07 in Calm     53% 0.00 in 26 W/m2
20:00 70.9 °F 52.9 °F 30.07 in Calm     53% 0.00 in 25 W/m2
20:06 70.4 °F 54.4 °F 30.07 in Calm     57% 0.00 in 18 W/m2
20:12 69.7 °F 53.8 °F 30.07 in Calm     57% 0.00 in 16 W/m2
20:18 68.7 °F 51.9 °F 30.07 in Calm     55% 0.00 in 14 W/m2
20:24 67.9 °F 52.1 °F 30.07 in Calm     57% 0.00 in 12 W/m2
20:30 67.3 °F 52.0 °F 30.07 in Calm     58% 0.00 in 11 W/m2
20:36 66.9 °F 53.0 °F 30.08 in Calm     61% 0.00 in 7 W/m2
20:42 66.3 °F 52.9 °F 30.08 in Calm     62% 0.00 in 5 W/m2
20:48 65.8 °F 52.4 °F 30.08 in Calm     62% 0.00 in 0 W/m2
20:54 65.3 °F 53.6 °F 30.08 in Calm     66% 0.00 in 0 W/m2
21:02 64.6 °F 51.7 °F 30.09 in Calm     63% 0.00 in 0 W/m2
21:08 64.2 °F 52.2 °F 30.09 in Calm     65% 0.00 in 0 W/m2
21:14 63.8 °F 53.0 °F 30.09 in Calm     68% 0.00 in 0 W/m2
21:20 63.4 °F 53.0 °F 30.09 in Calm     69% 0.00 in 0 W/m2
21:28 62.7 °F 52.0 °F 30.10 in Calm     68% 0.00 in 0 W/m2
21:34 62.3 °F 52.8 °F 30.10 in Calm     71% 0.00 in 0 W/m2
21:40 62.0 °F 52.9 °F 30.10 in Calm     72% 0.00 in 0 W/m2
21:46 61.6 °F 52.5 °F 30.10 in Calm     72% 0.00 in 0 W/m2
21:52 61.1 °F 52.4 °F 30.10 in Calm     73% 0.00 in 0 W/m2
21:58 60.7 °F 52.7 °F 30.11 in Calm     75% 0.00 in 0 W/m2
22:04 60.5 °F 52.2 °F 30.11 in Calm     74% 0.00 in 0 W/m2
22:10 60.1 °F 52.1 °F 30.12 in Calm     75% 0.00 in 0 W/m2
22:16 59.8 °F 51.9 °F 30.12 in Calm     75% 0.00 in 0 W/m2
22:22 59.5 °F 51.9 °F 30.12 in Calm     76% 0.00 in 0 W/m2
22:28 59.3 °F 51.7 °F 30.12 in Calm     76% 0.00 in 0 W/m2
22:34 59.1 °F 51.9 °F 30.12 in Calm     77% 0.00 in 0 W/m2
22:40 59.0 °F 52.5 °F 30.12 in Calm     79% 0.00 in 0 W/m2
22:46 58.9 °F 52.7 °F 30.12 in Calm     80% 0.00 in 0 W/m2
22:52 58.7 °F 52.9 °F 30.12 in Calm     81% 0.00 in 0 W/m2
22:58 58.5 °F 52.4 °F 30.12 in Calm     80% 0.00 in 0 W/m2
23:04 58.3 °F 52.2 °F 30.12 in Calm     80% 0.00 in 0 W/m2
23:10 58.1 °F 52.3 °F 30.13 in Calm     81% 0.00 in 0 W/m2
23:16 57.8 °F 52.3 °F 30.12 in Calm     82% 0.00 in 0 W/m2
23:22 57.7 °F 52.6 °F 30.13 in Calm     83% 0.00 in 0 W/m2
23:28 57.7 °F 53.2 °F 30.12 in Calm     85% 0.00 in 0 W/m2
23:34 57.6 °F 52.8 °F 30.13 in Calm     84% 0.00 in 0 W/m2
23:40 57.3 °F 52.8 °F 30.13 in Calm     85% 0.00 in 0 W/m2
23:46 57.1 °F 52.6 °F 30.13 in Calm     85% 0.00 in 0 W/m2
23:52 57.0 °F 52.9 °F 30.13 in Calm     86% 0.00 in 0 W/m2
23:58 56.9 °F 52.8 °F 30.13 in Calm     86% 0.00 in 0 W/m2
Country Meadow, Clay, NY, USA
Compliments of Weather Underground - 2 mb